Terminal Aerodrome Forecast
Issued by NWS

Current Version | Previous Version | Graphics & Text | Print | Product List | Glossary On
Versions: 1 2 3 4 5 6 7 8 9 10 11 12 13 14 15 16 17 18 19 20 21 22 23 24
000
FTUS41 KPBZ 191200 AAA
TAFMGW
TAF AMD
KMGW 191243Z 1913/2012 20003KT P6SM OVC009
     FM191330 VRB04KT P6SM SCT070
     FM200900 17006KT P6SM VCSH BKN040=

USA.gov is the U.S. government's official web portal to all federal, state and local government web resources and services.